createdAt,value
2023-03-11T00:00:55.420Z,5.72
2023-03-11T00:04:00.158Z,5.23
2023-03-11T00:07:05.828Z,6.22
2023-03-11T00:10:13.867Z,4.95
2023-03-11T00:13:17.187Z,6.32
2023-03-11T00:16:19.799Z,5.40
2023-03-11T00:19:22.985Z,5.10
2023-03-11T00:22:25.862Z,5.38
2023-03-11T00:25:30.428Z,4.32
2023-03-11T00:28:34.436Z,5.15
2023-03-11T00:31:37.442Z,5.65
2023-03-11T00:34:43.652Z,5.50
2023-03-11T00:37:48.059Z,6.20
2023-03-11T00:40:52.596Z,5.07
2023-03-11T00:43:55.238Z,5.15
2023-03-11T00:46:57.818Z,6.05
2023-03-11T00:50:00.679Z,4.87
2023-03-11T00:53:05.145Z,5.10
2023-03-11T00:56:12.630Z,5.10
2023-03-11T00:59:17.001Z,5.88
2023-03-11T01:02:20.198Z,6.13
2023-03-11T01:05:27.294Z,5.53
2023-03-11T01:08:31.576Z,6.18
2023-03-11T01:11:34.131Z,5.57
2023-03-11T01:14:36.689Z,4.78
2023-03-11T01:17:39.190Z,5.47
2023-03-11T01:20:42.295Z,4.40
2023-03-11T01:23:45.286Z,5.10
2023-03-11T01:26:47.849Z,6.15
2023-03-11T01:29:50.568Z,4.32
2023-03-11T01:32:54.518Z,4.93
2023-03-11T01:35:57.229Z,5.50
2023-03-11T01:39:03.596Z,5.50
2023-03-11T01:42:06.281Z,5.30
2023-03-11T01:45:40.680Z,5.50
2023-03-11T01:48:56.410Z,4.35
2023-03-11T01:52:08.073Z,5.00
2023-03-11T01:55:18.651Z,5.20
2023-03-11T01:58:26.550Z,5.43
2023-03-11T02:01:30.282Z,5.03
2023-03-11T02:04:35.357Z,5.05
2023-03-11T02:07:41.392Z,5.20
2023-03-11T02:10:47.680Z,4.40
2023-03-11T02:13:51.304Z,5.38
2023-03-11T02:16:55.290Z,7.00
2023-03-11T02:20:14.700Z,4.60
2023-03-11T02:23:20.111Z,5.13
2023-03-11T02:26:41.724Z,4.60
2023-03-11T02:29:49.749Z,5.60
2023-03-11T02:32:54.805Z,4.57
2023-03-11T02:35:57.777Z,6.28
2023-03-11T02:39:01.247Z,4.90
2023-03-11T02:42:29.568Z,4.40
2023-03-11T02:45:33.169Z,5.82
2023-03-11T02:48:36.928Z,5.75
2023-03-11T02:51:39.564Z,6.03
2023-03-11T02:54:42.680Z,5.10
2023-03-11T02:57:47.037Z,5.28
2023-03-11T03:00:49.852Z,4.72
2023-03-11T03:03:54.389Z,4.28
2023-03-11T03:06:57.254Z,4.32
2023-03-11T03:09:59.847Z,5.00
2023-03-11T03:13:03.163Z,5.30
2023-03-11T03:16:06.326Z,5.05
2023-03-11T03:19:09.192Z,4.57
2023-03-11T03:22:11.771Z,5.88
2023-03-11T03:25:16.201Z,5.40
2023-03-11T03:28:19.354Z,5.93
2023-03-11T03:31:23.098Z,4.85
2023-03-11T03:34:26.471Z,6.03
2023-03-11T03:37:32.713Z,5.05
2023-03-11T03:40:36.010Z,6.20
2023-03-11T03:43:40.847Z,5.45
2023-03-11T03:46:43.931Z,4.50
2023-03-11T03:49:47.025Z,4.70
2023-03-11T03:52:49.853Z,4.60
2023-03-11T03:55:54.693Z,4.93
2023-03-11T03:58:57.910Z,4.25
2023-03-11T04:02:04.648Z,4.65
2023-03-11T04:05:08.672Z,5.05
2023-03-11T04:08:12.705Z,4.70
2023-03-11T04:11:16.316Z,5.10
2023-03-11T04:14:19.508Z,4.18
2023-03-11T04:17:30.823Z,5.43
2023-03-11T04:20:34.174Z,4.25
2023-03-11T04:23:37.562Z,4.93
2023-03-11T04:26:42.030Z,4.70
2023-03-11T04:29:49.329Z,5.07
2023-03-11T04:32:51.991Z,4.47
2023-03-11T04:35:54.834Z,5.78
2023-03-11T04:38:57.888Z,4.30
2023-03-11T04:42:04.095Z,4.77
2023-03-11T04:45:11.027Z,5.40
2023-03-11T04:48:14.269Z,4.47
2023-03-11T04:51:17.348Z,5.65
2023-03-11T04:54:20.597Z,4.75
2023-03-11T04:57:24.027Z,4.90
2023-03-11T05:00:26.796Z,5.18
2023-03-11T05:03:38.694Z,5.80
2023-03-11T05:06:41.639Z,4.57
2023-03-11T05:09:44.694Z,3.92
2023-03-11T05:12:50.146Z,4.33
2023-03-11T05:15:53.579Z,4.00
2023-03-11T05:18:57.685Z,7.32
2023-03-11T05:22:02.548Z,4.88
2023-03-11T05:25:06.473Z,4.32
2023-03-11T05:28:11.370Z,4.87
2023-03-11T05:31:20.043Z,4.47
2023-03-11T05:34:23.546Z,4.00
2023-03-11T05:37:26.377Z,5.00
2023-03-11T05:40:30.536Z,4.60
2023-03-11T05:43:33.412Z,4.57
2023-03-11T05:46:36.232Z,4.03
2023-03-11T05:49:41.357Z,4.28
2023-03-11T05:52:44.149Z,5.78
2023-03-11T05:55:56.648Z,4.05
2023-03-11T05:59:01.343Z,4.33
2023-03-11T06:02:08.197Z,4.03
2023-03-11T06:05:13.441Z,4.18
2023-03-11T06:08:17.597Z,5.45
2023-03-11T06:11:21.285Z,4.85
2023-03-11T06:14:24.073Z,4.40
2023-03-11T06:17:30.301Z,4.43
2023-03-11T06:20:33.405Z,4.85
2023-03-11T06:23:36.376Z,4.72
2023-03-11T06:26:39.499Z,4.82
2023-03-11T06:29:42.527Z,4.83
2023-03-11T06:32:46.997Z,4.25
2023-03-11T06:36:02.891Z,4.60
2023-03-11T06:39:05.791Z,3.95
2023-03-11T06:42:10.901Z,4.53
2023-03-11T06:45:14.191Z,3.97
2023-03-11T06:48:18.640Z,4.35
2023-03-11T06:51:22.574Z,4.07
2023-03-11T06:54:25.420Z,4.38
2023-03-11T06:57:29.537Z,4.40
2023-03-11T07:00:35.994Z,3.87
2023-03-11T07:03:39.591Z,4.07
2023-03-11T07:06:43.547Z,4.70
2023-03-11T07:10:00.280Z,5.00
2023-03-11T07:13:03.335Z,3.90
2023-03-11T07:16:09.957Z,4.57
2023-03-11T07:19:14.715Z,4.80
2023-03-11T07:22:17.865Z,4.28
2023-03-11T07:25:20.600Z,4.30
2023-03-11T07:28:24.775Z,3.90
2023-03-11T07:31:32.800Z,3.80
2023-03-11T07:34:36.153Z,3.90
2023-03-11T07:37:38.720Z,3.88
2023-03-11T07:40:41.376Z,4.15
2023-03-11T07:43:44.388Z,4.32
2023-03-11T07:46:47.492Z,3.93
2023-03-11T07:49:50.184Z,4.53
2023-03-11T07:52:52.907Z,3.63
2023-03-11T07:55:57.040Z,4.05
2023-03-11T07:59:01.274Z,3.88
2023-03-11T08:02:04.889Z,3.50
2023-03-11T08:05:07.792Z,4.32
2023-03-11T08:08:10.372Z,3.90
2023-03-11T08:11:14.036Z,3.83
2023-03-11T08:14:16.611Z,3.72
2023-03-11T08:17:19.409Z,4.03
2023-03-11T08:20:22.109Z,3.85
2023-03-11T08:23:24.727Z,4.78
2023-03-11T08:26:27.405Z,3.65
2023-03-11T08:29:30.172Z,4.18
2023-03-11T08:32:33.574Z,3.90
2023-03-11T08:35:36.203Z,4.68
2023-03-11T08:38:39.447Z,3.80
2023-03-11T08:41:42.115Z,4.35
2023-03-11T08:44:44.873Z,4.25
2023-03-11T08:47:47.489Z,4.10
2023-03-11T08:50:54.250Z,3.90
2023-03-11T08:53:57.501Z,3.35
2023-03-11T08:57:03.131Z,3.35
2023-03-11T09:00:08.465Z,4.07
2023-03-11T09:03:11.491Z,3.77
2023-03-11T09:06:16.812Z,3.55
2023-03-11T09:09:22.497Z,3.38
2023-03-11T09:12:25.177Z,3.53
2023-03-11T09:15:28.254Z,3.45
2023-03-11T09:18:31.035Z,3.63
2023-03-11T09:21:37.544Z,3.55
2023-03-11T09:24:40.837Z,4.20
2023-03-11T09:27:44.328Z,3.58
2023-03-11T09:30:47.347Z,3.30
2023-03-11T09:33:52.853Z,3.47
2023-03-11T09:36:55.407Z,3.72
2023-03-11T09:39:57.966Z,3.30
2023-03-11T09:43:19.354Z,3.65
2023-03-11T09:46:46.444Z,3.00
2023-03-11T09:50:07.010Z,3.93
2023-03-11T09:53:10.262Z,4.75
2023-03-11T09:56:18.743Z,2.53
2023-03-11T09:59:31.976Z,4.95
2023-03-11T10:02:37.877Z,2.83
2023-03-11T10:05:42.868Z,4.03
2023-03-11T10:09:06.225Z,3.33
2023-03-11T10:12:32.993Z,3.42
2023-03-11T10:15:41.532Z,4.43
2023-03-11T10:18:57.747Z,3.88
2023-03-11T10:22:18.549Z,3.43
2023-03-11T10:25:48.098Z,3.70
2023-03-11T10:29:16.786Z,2.92
2023-03-11T10:32:23.086Z,4.15
2023-03-11T10:35:46.388Z,3.83
2023-03-11T10:38:50.148Z,3.23
2023-03-11T10:42:00.682Z,3.47
2023-03-11T10:45:03.442Z,3.47
2023-03-11T10:48:16.828Z,3.08
2023-03-11T10:51:23.010Z,3.45
2023-03-11T10:54:33.076Z,3.47
2023-03-11T10:57:38.959Z,3.22
2023-03-11T11:00:41.776Z,3.28
2023-03-11T11:03:51.453Z,3.40
2023-03-11T11:06:54.066Z,3.60
2023-03-11T11:10:15.524Z,3.20
2023-03-11T11:13:21.062Z,3.15
2023-03-11T11:16:29.177Z,3.00
2023-03-11T11:19:32.431Z,3.47
2023-03-11T11:22:35.757Z,2.35
2023-03-11T11:25:43.001Z,3.03
2023-03-11T11:28:45.659Z,2.45
2023-03-11T11:31:48.580Z,3.70
2023-03-11T11:35:02.248Z,3.63
2023-03-11T11:38:10.596Z,3.40
2023-03-11T11:41:16.899Z,2.63
2023-03-11T11:44:22.105Z,2.60
2023-03-11T11:47:36.725Z,3.75
2023-03-11T11:50:48.755Z,3.55
2023-03-11T11:54:02.074Z,3.33
2023-03-11T11:57:13.269Z,2.80
2023-03-11T12:00:26.010Z,4.47
2023-03-11T12:03:34.870Z,3.28
2023-03-11T12:07:00.794Z,2.65
2023-03-11T12:10:30.987Z,2.83
2023-03-11T12:14:09.030Z,2.30
2023-03-11T12:17:14.820Z,2.97
2023-03-11T12:20:33.331Z,4.13
2023-03-11T12:23:55.126Z,3.13
2023-03-11T12:27:03.869Z,3.67
2023-03-11T12:30:16.794Z,3.40
2023-03-11T12:33:31.555Z,2.97
2023-03-11T12:36:43.965Z,4.60
2023-03-11T12:39:46.571Z,2.92
2023-03-11T12:42:49.251Z,3.35
2023-03-11T12:45:55.528Z,3.20
2023-03-11T12:49:14.193Z,2.78
2023-03-11T12:52:20.296Z,4.15
2023-03-11T12:55:32.546Z,1.98
2023-03-11T12:58:45.507Z,4.15
2023-03-11T13:02:04.045Z,2.90
2023-03-11T13:05:17.731Z,2.45
2023-03-11T13:08:26.265Z,3.28
2023-03-11T13:11:38.726Z,3.08
2023-03-11T13:14:41.635Z,1.92
2023-03-11T13:18:03.034Z,2.97
2023-03-11T13:21:28.533Z,2.40
2023-03-11T13:24:31.340Z,2.97
2023-03-11T13:27:41.040Z,2.50
2023-03-11T13:31:09.124Z,3.15
2023-03-11T13:34:42.728Z,2.30
2023-03-11T13:38:17.509Z,2.28
2023-03-11T13:41:27.894Z,3.30
2023-03-11T13:44:35.733Z,2.95
2023-03-11T13:47:43.431Z,2.90
2023-03-11T13:50:54.798Z,3.10
2023-03-11T13:54:25.381Z,2.90
2023-03-11T13:57:31.741Z,2.25
2023-03-11T14:00:35.014Z,3.53
2023-03-11T14:03:42.182Z,2.75
2023-03-11T14:06:46.385Z,2.10
2023-03-11T14:09:49.597Z,3.08
2023-03-11T14:13:04.809Z,2.72
2023-03-11T14:16:14.793Z,2.40
2023-03-11T14:19:19.409Z,3.28
2023-03-11T14:22:23.032Z,2.10
2023-03-11T14:25:28.561Z,2.65
2023-03-11T14:28:35.479Z,2.92
2023-03-11T14:31:44.163Z,4.43
2023-03-11T14:34:48.151Z,2.10
2023-03-11T14:37:50.812Z,2.60
2023-03-11T14:40:57.395Z,2.80
2023-03-11T14:44:00.955Z,2.53
2023-03-11T14:47:18.211Z,3.15
2023-03-11T14:50:35.129Z,3.13
2023-03-11T14:54:10.581Z,2.73
2023-03-11T14:57:37.114Z,3.05
2023-03-11T15:00:46.632Z,3.28
2023-03-11T15:03:52.360Z,3.58
2023-03-11T15:06:56.239Z,3.15
2023-03-11T15:09:58.978Z,3.33
2023-03-11T15:13:13.668Z,2.30
2023-03-11T15:16:36.093Z,3.03
2023-03-11T15:19:39.527Z,2.85
2023-03-11T15:22:42.818Z,2.58
2023-03-11T15:25:52.093Z,3.03
2023-03-11T15:28:57.728Z,3.03
2023-03-11T15:32:01.547Z,3.15
2023-03-11T15:35:16.443Z,3.35
2023-03-11T15:38:25.588Z,1.83
2023-03-11T15:41:28.691Z,3.27
2023-03-11T15:44:55.846Z,2.03
2023-03-11T15:47:58.837Z,1.95
2023-03-11T15:51:01.599Z,2.03
2023-03-11T15:54:04.672Z,2.30
2023-03-11T15:57:12.848Z,3.80
2023-03-11T16:00:19.860Z,2.35
2023-03-11T16:03:24.104Z,2.83
2023-03-11T16:06:28.087Z,3.30
2023-03-11T16:09:33.444Z,2.40
2023-03-11T16:12:36.903Z,2.83
2023-03-11T16:15:41.976Z,2.25
2023-03-11T16:18:45.473Z,2.47
2023-03-11T16:21:50.787Z,2.40
2023-03-11T16:24:54.445Z,2.72
2023-03-11T16:27:57.850Z,2.07
2023-03-11T16:31:00.705Z,2.42
2023-03-11T16:34:03.670Z,3.15
2023-03-11T16:37:09.317Z,3.38
2023-03-11T16:40:21.749Z,2.63
2023-03-11T16:43:26.833Z,3.10
2023-03-11T16:46:29.896Z,2.30
2023-03-11T16:49:33.449Z,2.05
2023-03-11T16:52:36.290Z,2.53
2023-03-11T16:55:38.885Z,2.67
2023-03-11T16:58:41.992Z,3.07
2023-03-11T17:01:48.429Z,2.83
2023-03-11T17:04:52.108Z,2.10
2023-03-11T17:08:02.212Z,1.88
2023-03-11T17:11:05.362Z,3.00
2023-03-11T17:14:16.263Z,1.97
2023-03-11T17:17:21.634Z,2.20
2023-03-11T17:20:29.562Z,3.80
2023-03-11T17:23:33.013Z,2.47
2023-03-11T17:26:36.487Z,2.38
2023-03-11T17:29:39.997Z,2.47
2023-03-11T17:32:43.604Z,2.65
2023-03-11T17:35:47.341Z,2.58
2023-03-11T17:38:54.716Z,2.95
2023-03-11T17:41:57.982Z,3.78
2023-03-11T17:45:01.532Z,2.57
2023-03-11T17:48:08.243Z,3.50
2023-03-11T17:51:14.735Z,3.40
2023-03-11T17:54:18.144Z,1.80
2023-03-11T17:57:21.828Z,2.65
2023-03-11T18:00:26.221Z,2.93
2023-03-11T18:03:30.033Z,2.20
2023-03-11T18:06:33.715Z,3.00
2023-03-11T18:09:36.890Z,3.08
2023-03-11T18:12:43.748Z,2.80
2023-03-11T18:15:47.673Z,2.00
2023-03-11T18:18:51.090Z,1.50
2023-03-11T18:21:54.584Z,3.40
2023-03-11T18:25:00.288Z,2.30
2023-03-11T18:28:04.731Z,2.47
2023-03-11T18:31:17.605Z,2.07
2023-03-11T18:34:21.518Z,2.70
2023-03-11T18:37:25.622Z,2.65
2023-03-11T18:40:29.191Z,2.78
2023-03-11T18:43:32.828Z,2.35
2023-03-11T18:46:36.612Z,2.30
2023-03-11T18:49:41.392Z,4.38
2023-03-11T18:52:46.214Z,1.80
2023-03-11T18:55:49.944Z,2.15
2023-03-11T18:58:54.674Z,2.15
2023-03-11T19:01:58.733Z,3.00
2023-03-11T19:05:02.680Z,2.60
2023-03-11T19:08:06.653Z,2.50
2023-03-11T19:11:13.977Z,2.65
2023-03-11T19:14:17.784Z,3.33
2023-03-11T19:17:21.536Z,2.33
2023-03-11T19:20:27.668Z,3.10
2023-03-11T19:23:31.618Z,2.63
2023-03-11T19:26:44.905Z,2.35
2023-03-11T19:29:49.236Z,3.85
2023-03-11T19:32:53.416Z,2.40
2023-03-11T19:36:02.543Z,3.35
2023-03-11T19:39:06.326Z,2.58
2023-03-11T19:42:09.994Z,2.53
2023-03-11T19:45:14.950Z,3.15
2023-03-11T19:48:20.488Z,3.23
2023-03-11T19:51:25.417Z,3.28
2023-03-11T19:54:32.508Z,2.60
2023-03-11T19:57:36.034Z,2.03
2023-03-11T20:00:41.663Z,2.55
2023-03-11T20:03:45.517Z,2.37
2023-03-11T20:06:59.392Z,2.67
2023-03-11T20:10:04.578Z,3.08
2023-03-11T20:13:08.479Z,1.75
2023-03-11T20:16:18.747Z,2.10
2023-03-11T20:19:22.666Z,2.47
2023-03-11T20:22:26.008Z,2.50
2023-03-11T20:25:32.861Z,3.00
2023-03-11T20:28:36.271Z,3.17
2023-03-11T20:31:42.544Z,3.20
2023-03-11T20:34:46.233Z,2.43
2023-03-11T20:37:49.323Z,2.70
2023-03-11T20:40:57.634Z,2.55
2023-03-11T20:44:05.458Z,3.00
2023-03-11T20:47:09.302Z,2.25
2023-03-11T20:50:16.071Z,2.67
2023-03-11T20:53:20.329Z,2.65
2023-03-11T20:56:28.402Z,3.08
2023-03-11T20:59:32.133Z,2.97
2023-03-11T21:02:35.682Z,2.08
2023-03-11T21:05:39.897Z,2.70
2023-03-11T21:08:44.631Z,3.20
2023-03-11T21:11:48.009Z,3.55
2023-03-11T21:14:51.960Z,1.95
2023-03-11T21:17:56.732Z,2.35
2023-03-11T21:20:59.637Z,2.13
2023-03-11T21:24:03.888Z,2.10
2023-03-11T21:27:07.118Z,3.65
2023-03-11T21:30:11.750Z,2.88
2023-03-11T21:33:15.560Z,3.13
2023-03-11T21:36:18.722Z,2.43
2023-03-11T21:39:22.019Z,2.53
2023-03-11T21:42:24.999Z,1.95
2023-03-11T21:45:27.984Z,2.47
2023-03-11T21:48:30.754Z,1.75
2023-03-11T21:51:33.843Z,2.60
2023-03-11T21:54:36.914Z,1.98
2023-03-11T21:57:39.715Z,2.70
2023-03-11T22:00:43.220Z,2.30
2023-03-11T22:03:47.462Z,2.25
2023-03-11T22:06:50.102Z,2.03
2023-03-11T22:09:53.496Z,2.78
2023-03-11T22:12:56.227Z,2.42
2023-03-11T22:16:01.941Z,2.63
2023-03-11T22:19:06.156Z,1.92
2023-03-11T22:22:09.017Z,2.53
2023-03-11T22:25:11.833Z,1.98
2023-03-11T22:28:14.893Z,2.85
2023-03-11T22:31:19.100Z,2.75
2023-03-11T22:34:21.914Z,2.15
2023-03-11T22:37:24.506Z,2.80
2023-03-11T22:40:27.492Z,3.03
2023-03-11T22:43:30.033Z,3.10
2023-03-11T22:46:32.630Z,1.88
2023-03-11T22:49:35.227Z,2.65
2023-03-11T22:52:39.051Z,3.50
2023-03-11T22:55:43.314Z,2.72
2023-03-11T22:58:46.707Z,2.47
2023-03-11T23:01:49.317Z,2.22
2023-03-11T23:04:52.386Z,2.47
2023-03-11T23:07:55.393Z,2.23
2023-03-11T23:11:02.379Z,2.92
2023-03-11T23:14:05.086Z,2.20
2023-03-11T23:17:07.856Z,1.90
2023-03-11T23:20:15.002Z,2.75
2023-03-11T23:23:17.749Z,2.20
2023-03-11T23:26:21.943Z,2.55
2023-03-11T23:29:24.491Z,2.42
2023-03-11T23:32:27.162Z,2.47
2023-03-11T23:35:31.488Z,2.75
2023-03-11T23:38:35.522Z,2.80
2023-03-11T23:41:38.294Z,2.53
2023-03-11T23:44:41.027Z,3.75
2023-03-11T23:47:43.573Z,2.22
2023-03-11T23:50:50.473Z,2.78
2023-03-11T23:53:53.123Z,2.10
2023-03-11T23:56:55.795Z,3.30
2023-03-11T23:59:58.692Z,3.63
